Time;durP1;ratioP1;P1;durP2;ratioP2;P2;SDS_P1;SDS_P2;PMS_P1;PMS_P2;Temp;Humidity;BMP_temperature;BMP_pressure;BME280_temperature;BME280_humidity;BME280_pressure;Samples;Min_cycle;Max_cycle;Signal;HPM_P1;HPM_P2
2023/02/14 00:01:26;;;;;;;65.93;29.15;;;;;;;0.33;100.00;103430.44;5223334;28;20021;-74
2023/02/14 00:03:59;;;;;;;60.55;27.60;;;;;;;0.30;100.00;103426.09;5206226;28;20029;-74
2023/02/14 00:06:34;;;;;;;62.33;26.17;;;;;;;0.27;100.00;103425.31;5192936;28;20533;-74
2023/02/14 00:09:06;;;;;;;64.72;27.42;;;;;;;0.24;100.00;103424.47;5226765;28;20111;-74
2023/02/14 00:11:37;;;;;;;63.15;27.73;;;;;;;0.22;100.00;103418.38;5223872;28;20032;-74
2023/02/14 00:16:57;;;;;;;44.30;21.63;;;;;;;0.24;100.00;103419.19;5223682;28;20022;-74
2023/02/14 00:19:28;;;;;;;66.78;29.48;;;;;;;0.25;100.00;103415.66;5223514;28;20029;-74
2023/02/14 00:21:58;;;;;;;56.40;27.02;;;;;;;0.22;100.00;103413.09;5223555;28;20048;-74
2023/02/14 00:24:29;;;;;;;61.05;27.50;;;;;;;0.16;100.00;103423.81;5223654;28;20033;-74
2023/02/14 00:26:59;;;;;;;65.45;30.60;;;;;;;0.14;100.00;103416.81;5223040;28;20496;-74
2023/02/14 00:29:31;;;;;;;73.05;33.15;;;;;;;0.13;100.00;103420.34;5223862;28;20027;-74
2023/02/14 00:32:01;;;;;;;71.80;30.83;;;;;;;0.10;100.00;103416.03;5223430;28;20025;-73
2023/02/14 00:34:35;;;;;;;53.90;28.30;;;;;;;0.04;100.00;103418.78;5223396;28;20025;-73
2023/02/14 00:37:05;;;;;;;56.17;28.25;;;;;;;0.01;100.00;103413.59;5205176;28;20044;-74
2023/02/14 00:39:36;;;;;;;71.63;30.55;;;;;;;0.00;100.00;103419.78;5223555;28;20044;-74
2023/02/14 00:42:06;;;;;;;65.15;30.60;;;;;;;-0.02;100.00;103419.81;5223657;28;20372;-74
2023/02/14 00:44:37;;;;;;;70.10;32.15;;;;;;;-0.04;100.00;103413.72;5223707;28;20078;-74
2023/02/14 00:47:07;;;;;;;77.80;33.92;;;;;;;-0.06;100.00;103415.50;5222630;28;20048;-73
2023/02/14 00:49:38;;;;;;;89.82;39.65;;;;;;;-0.05;100.00;103419.91;5223123;28;20017;-74
2023/02/14 00:52:08;;;;;;;78.10;36.97;;;;;;;-0.04;100.00;103423.41;5223227;28;20032;-74
2023/02/14 00:54:38;;;;;;;97.32;41.63;;;;;;;-0.02;100.00;103418.94;5205538;28;20025;-74
2023/02/14 00:57:09;;;;;;;91.55;39.90;;;;;;;-0.01;100.00;103410.09;5226330;28;20029;-74
2023/02/14 00:59:39;;;;;;;75.78;33.42;;;;;;;-0.03;100.00;103406.66;5226487;28;20063;-74
2023/02/14 01:02:10;;;;;;;78.53;36.30;;;;;;;-0.09;100.00;103415.59;5227510;28;20032;-74
2023/02/14 01:04:40;;;;;;;78.97;35.72;;;;;;;-0.15;100.00;103413.09;5213471;28;20017;-74
2023/02/14 01:07:11;;;;;;;72.25;36.17;;;;;;;-0.21;100.00;103414.97;5226852;28;20086;-74
2023/02/14 01:09:41;;;;;;;82.68;36.00;;;;;;;-0.24;100.00;103413.28;5226960;28;20028;-74
2023/02/14 01:12:12;;;;;;;84.78;37.92;;;;;;;-0.22;100.00;103418.53;5226718;28;20037;-74
2023/02/14 01:14:42;;;;;;;75.43;33.15;;;;;;;-0.20;100.00;103407.03;5227025;28;20071;-74
2023/02/14 01:17:13;;;;;;;83.82;38.38;;;;;;;-0.15;100.00;103423.66;5226374;28;20025;-74
2023/02/14 01:19:44;;;;;;;80.10;35.10;;;;;;;-0.14;100.00;103412.19;5226992;28;20031;-74
2023/02/14 01:22:14;;;;;;;100.00;37.53;;;;;;;-0.16;100.00;103413.97;5209105;28;20112;-74
2023/02/14 01:24:45;;;;;;;96.85;39.33;;;;;;;-0.18;100.00;103410.50;5227057;28;20082;-74
2023/02/14 01:27:15;;;;;;;101.25;39.03;;;;;;;-0.20;100.00;103414.97;5226240;28;20021;-74
2023/02/14 01:29:45;;;;;;;90.57;36.75;;;;;;;-0.27;100.00;103414.22;5226771;28;20025;-74
2023/02/14 01:32:16;;;;;;;92.60;38.35;;;;;;;-0.33;100.00;103418.75;5226433;28;20025;-74
2023/02/14 01:34:46;;;;;;;95.70;38.85;;;;;;;-0.39;100.00;103418.91;5226808;28;20023;-74
2023/02/14 01:37:17;;;;;;;83.50;37.55;;;;;;;-0.42;100.00;103414.53;5225692;28;20398;-74
2023/02/14 01:39:47;;;;;;;82.82;36.90;;;;;;;-0.46;100.00;103410.22;5226315;28;20025;-74
2023/02/14 01:42:18;;;;;;;89.22;35.83;;;;;;;-0.48;100.00;103405.91;5226666;28;20021;-74
2023/02/14 01:44:48;;;;;;;84.53;35.88;;;;;;;-0.51;100.00;103409.44;5226478;28;20036;-74
2023/02/14 01:47:19;;;;;;;92.55;36.95;;;;;;;-0.53;100.00;103412.13;5225996;28;20401;-74
2023/02/14 01:49:54;;;;;;;80.43;35.65;;;;;;;-0.58;100.00;103407.88;5225917;28;20103;-74
2023/02/14 01:52:30;;;;;;;88.88;36.78;;;;;;;-0.60;100.00;103405.25;5226335;28;20059;-74
2023/02/14 01:55:02;;;;;;;;;;;;;;;-0.63;100.00;103400.03;5226728;28;20134;-74
2023/02/14 01:57:38;;;;;;;94.63;41.15;;;;;;;-0.62;100.00;103404.41;5225628;28;19955;-74
2023/02/14 02:03:03;;;;;;;95.38;41.05;;;;;;;-0.63;100.00;103388.63;5221057;28;20021;-74
2023/02/14 02:05:39;;;;;;;87.70;39.33;;;;;;;-0.64;100.00;103392.19;5218853;28;20497;-74
2023/02/14 02:08:20;;;;;;;102.15;42.08;;;;;;;-0.66;100.00;103383.41;5213376;28;20025;-74
2023/02/14 02:10:51;;;;;;;89.55;39.97;;;;;;;-0.67;100.00;103389.59;5225877;28;20083;-74
2023/02/14 02:13:41;;;;;;;80.80;37.10;;;;;;;-0.71;100.00;103382.63;5211544;28;20482;-74
2023/02/14 02:16:59;;;;;;;78.78;35.80;;;;;;;-0.75;100.00;103373.94;5200111;28;20037;-74
2023/02/14 02:20:07;;;;;;;88.85;36.80;;;;;;;-0.79;100.00;103377.53;5213088;28;20102;-74
2023/02/14 02:23:13;;;;;;;85.25;36.50;;;;;;;-0.83;100.00;103378.50;5225941;28;20424;-74
2023/02/14 02:25:54;;;;;;;82.07;37.60;;;;;;;-0.88;100.00;103373.31;5225758;28;20029;-74
2023/02/14 02:28:44;;;;;;;77.25;36.63;;;;;;;-0.90;100.00;103377.75;5225114;28;20020;-74
2023/02/14 02:31:25;;;;;;;83.30;36.13;;;;;;;-0.90;100.00;103384.81;5225125;28;20036;-74
2023/02/14 02:34:40;;;;;;;76.10;35.55;;;;;;;-0.93;100.00;103380.44;5225633;28;20029;-74
2023/02/14 02:37:19;;;;;;;77.82;35.60;;;;;;;-0.94;100.00;103376.06;5225284;28;20025;-74
2023/02/14 02:40:24;;;;;;;86.57;38.13;;;;;;;-0.94;100.00;103377.84;5224960;28;20036;-74
2023/02/14 02:43:21;;;;;;;79.85;37.50;;;;;;;-0.96;100.00;103375.22;5225456;28;20059;-74
2023/02/14 02:48:58;;;;;;;79.70;35.65;;;;;;;-0.98;100.00;103376.16;5225528;28;20482;-74
2023/02/14 02:54:36;;;;;;;82.00;36.20;;;;;;;-1.00;100.00;103375.31;5224980;28;20025;-74
2023/02/14 02:57:14;;;;;;;78.20;36.38;;;;;;;-1.00;100.00;103380.56;5224992;28;20048;-74
2023/02/14 02:59:45;;;;;;;78.97;36.60;;;;;;;-1.01;100.00;103382.34;5224802;28;20397;-74
2023/02/14 03:02:24;;;;;;;80.25;37.97;;;;;;;-1.00;100.00;103378.84;5225311;28;20024;-74
2023/02/14 03:04:59;;;;;;;87.30;39.10;;;;;;;-1.02;100.00;103379.75;5194876;28;20544;-74
2023/02/14 03:07:34;;;;;;;95.35;38.78;;;;;;;-1.02;100.00;103379.75;5174436;28;20060;-74
2023/02/14 03:10:25;;;;;;;92.68;38.13;;;;;;;-1.04;100.00;103385.06;5224902;28;20393;-74
2023/02/14 03:13:23;;;;;;;114.82;39.53;;;;;;;-1.05;100.00;103380.69;5224306;28;20029;-74
2023/02/14 03:15:53;;;;;;;116.88;39.85;;;;;;;-1.06;100.00;103379.78;5224603;28;20127;-74
2023/02/14 03:18:59;;;;;;;151.13;41.78;;;;;;;-1.07;100.00;103378.06;5224327;28;20111;-73
2023/02/14 03:21:48;;;;;;;118.50;39.38;;;;;;;-1.09;100.00;103376.38;5186129;28;20033;-73
2023/02/14 03:24:47;;;;;;;97.57;37.30;;;;;;;-1.09;100.00;103379.00;5211217;28;20052;-74
2023/02/14 03:27:27;;;;;;;108.50;39.60;;;;;;;-1.11;100.00;103372.88;5224282;28;20036;-73
2023/02/14 03:30:21;;;;;;;99.28;39.72;;;;;;;-1.11;100.00;103371.13;5206943;28;20539;-73
2023/02/14 03:33:22;;;;;;;96.68;37.47;;;;;;;-1.12;100.00;103373.78;5224654;28;20029;-73
2023/02/14 03:35:55;;;;;;;122.20;44.33;;;;;;;-1.15;100.00;103366.81;5212836;28;20029;-73
2023/02/14 03:38:32;;;;;;;106.90;39.67;;;;;;;-1.17;100.00;103380.91;5224057;28;20033;-73
2023/02/14 03:41:08;;;;;;;114.88;40.13;;;;;;;-1.18;100.00;103374.78;5224468;28;20028;-73
2023/02/14 03:43:48;;;;;;;97.65;38.75;;;;;;;-1.20;100.00;103381.00;5224203;28;20052;-73
2023/02/14 03:46:25;;;;;;;100.55;40.10;;;;;;;-1.23;100.00;103374.00;5223756;28;20362;-73
2023/02/14 03:49:00;;;;;;;98.20;37.97;;;;;;;-1.24;100.00;103380.16;5224329;28;20025;-74
2023/02/14 03:51:33;;;;;;;110.78;40.90;;;;;;;-1.26;100.00;103381.94;5223947;28;20052;-73
2023/02/14 03:54:06;;;;;;;110.45;41.80;;;;;;;-1.28;100.00;103377.63;5224020;28;20104;-73
2023/02/14 03:56:59;;;;;;;102.20;38.33;;;;;;;-1.28;100.00;103380.25;5223938;28;20025;-73
2023/02/14 03:59:30;;;;;;;82.57;36.60;;;;;;;-1.31;100.00;103379.41;5205644;28;20033;-74
2023/02/14 04:02:24;;;;;;;127.97;40.67;;;;;;;-1.36;100.00;103380.38;5223975;28;20031;-73
2023/02/14 04:04:57;;;;;;;187.13;45.03;;;;;;;-1.43;100.00;103379.63;5211020;28;20439;-73
2023/02/14 04:07:28;;;;;;;185.07;42.00;;;;;;;-1.47;100.00;103377.06;5223162;28;20098;-73
2023/02/14 04:09:58;;;;;;;139.73;44.28;;;;;;;-1.51;100.00;103376.25;5205940;28;20032;-73
2023/02/14 04:12:29;;;;;;;137.90;43.33;;;;;;;-1.51;100.00;103378.00;5208425;28;20103;-73
2023/02/14 04:14:59;;;;;;;127.22;43.90;;;;;;;-1.52;100.00;103378.91;5203943;28;20389;-73
2023/02/14 04:20:19;;;;;;;107.65;38.70;;;;;;;-1.55;100.00;103379.84;5204509;28;20036;-73
2023/02/14 04:22:50;;;;;;;99.18;39.40;;;;;;;-1.55;100.00;103379.00;5204030;28;20377;-73
2023/02/14 04:25:22;;;;;;;89.85;35.88;;;;;;;-1.58;100.00;103372.00;5186740;28;20028;-74
2023/02/14 04:27:53;;;;;;;96.55;39.05;;;;;;;-1.58;100.00;103369.38;5185603;28;20021;-73
2023/02/14 04:30:23;;;;;;;77.50;35.38;;;;;;;-1.59;100.00;103367.63;5203971;28;20036;-74
2023/02/14 04:32:54;;;;;;;99.05;37.38;;;;;;;-1.59;100.00;103384.28;5208407;28;20049;-73
2023/02/14 04:35:24;;;;;;;103.72;39.85;;;;;;;-1.60;100.00;103373.81;5208549;28;20024;-73
2023/02/14 04:37:55;;;;;;;89.47;39.28;;;;;;;-1.60;100.00;103381.69;5190180;28;20040;-73
2023/02/14 04:40:25;;;;;;;95.32;38.97;;;;;;;-1.62;100.00;103384.34;5207999;28;20032;-73
2023/02/14 04:42:56;;;;;;;99.78;37.35;;;;;;;-1.67;100.00;103386.16;5207729;28;20053;-73
2023/02/14 04:45:26;;;;;;;98.85;40.13;;;;;;;-1.70;100.00;103382.75;5208131;28;20029;-73
2023/02/14 04:47:57;;;;;;;99.68;41.33;;;;;;;-1.71;100.00;103384.47;5207215;28;20036;-73
2023/02/14 04:50:30;;;;;;;109.97;40.90;;;;;;;-1.69;100.00;103384.47;5190082;28;20017;-73
2023/02/14 04:53:01;;;;;;;111.10;41.28;;;;;;;-1.73;100.00;103378.38;5207416;28;20032;-73
2023/02/14 04:55:31;;;;;;;101.30;39.35;;;;;;;-1.75;100.00;103376.69;5207390;28;20029;-74
2023/02/14 04:58:01;;;;;;;85.28;35.90;;;;;;;-1.78;100.00;103371.47;5211279;28;20036;-73
2023/02/14 05:00:32;;;;;;;86.43;36.40;;;;;;;-1.82;100.00;103368.88;5217654;28;20397;-74
2023/02/14 05:03:03;;;;;;;94.20;36.22;;;;;;;-1.84;100.00;103375.94;5179009;28;20084;-74
2023/02/14 05:05:33;;;;;;;92.50;38.15;;;;;;;-1.86;100.00;103375.09;5226966;28;20078;-74
2023/02/14 05:08:04;;;;;;;100.43;39.92;;;;;;;-1.86;100.00;103372.47;5226894;28;20096;-74
2023/02/14 05:10:34;;;;;;;89.90;37.88;;;;;;;-1.88;100.00;103366.34;5226899;28;20451;-73
2023/02/14 05:13:05;;;;;;;99.18;37.15;;;;;;;-1.91;100.00;103366.41;5227059;28;20025;-73
2023/02/14 05:15:35;;;;;;;93.53;36.85;;;;;;;-1.95;100.00;103367.34;5229008;28;20036;-73
2023/02/14 05:18:06;;;;;;;93.45;35.33;;;;;;;-1.98;100.00;103362.13;5228901;28;20040;-74
2023/02/14 05:20:39;;;;;;;82.38;34.63;;;;;;;-2.00;100.00;103361.28;5227350;28;20025;-74
2023/02/14 05:23:12;;;;;;;86.25;37.08;;;;;;;-2.00;100.00;103366.56;5227575;28;20017;-73
2023/02/14 05:25:43;;;;;;;90.80;37.10;;;;;;;-1.99;100.00;103364.78;5209139;28;20029;-74
2023/02/14 05:28:14;;;;;;;96.05;37.92;;;;;;;-1.99;100.00;103359.53;5226647;28;20032;-74
2023/02/14 05:30:44;;;;;;;84.68;35.50;;;;;;;-2.00;100.00;103355.16;5226237;28;20076;-74
2023/02/14 05:33:15;;;;;;;81.35;35.20;;;;;;;-2.01;100.00;103361.28;5209143;28;20477;-74
2023/02/14 05:35:45;;;;;;;97.97;36.67;;;;;;;-2.03;100.00;103358.69;5209003;28;20025;-74
2023/02/14 05:38:19;;;;;;;89.97;36.40;;;;;;;-2.04;100.00;103353.47;5208678;28;20103;-74
2023/02/14 05:40:49;;;;;;;83.55;35.35;;;;;;;-2.06;100.00;103356.09;5208596;28;20033;-74
2023/02/14 05:43:20;;;;;;;83.35;34.95;;;;;;;-2.07;100.00;103370.16;5226328;28;20025;-74
2023/02/14 05:45:50;;;;;;;76.75;32.50;;;;;;;-2.09;100.00;103370.19;5226586;28;20466;-73
2023/02/14 05:48:21;;;;;;;83.18;33.53;;;;;;;-2.12;100.00;103366.72;5226483;28;20126;-74
2023/02/14 05:50:52;;;;;;;95.35;37.45;;;;;;;-2.12;100.00;103364.09;5226610;28;20032;-74
2023/02/14 05:53:23;;;;;;;87.15;34.85;;;;;;;-2.13;100.00;103359.72;5208052;28;20021;-73
2023/02/14 05:55:53;;;;;;;79.65;35.03;;;;;;;-2.12;100.00;103364.09;5226457;28;20097;-74
2023/02/14 05:58:24;;;;;;;83.13;34.92;;;;;;;-2.11;100.00;103363.19;5225699;28;20104;-74
2023/02/14 06:00:56;;;;;;;78.88;35.10;;;;;;;-2.10;100.00;103362.31;5226076;28;20058;-74
2023/02/14 06:03:26;;;;;;;74.03;34.15;;;;;;;-2.09;100.00;103369.31;5217320;28;20037;-74
2023/02/14 06:05:57;;;;;;;82.72;36.47;;;;;;;-2.09;100.00;103358.78;5203583;28;20540;-74
2023/02/14 06:08:27;;;;;;;87.20;35.70;;;;;;;-2.11;100.00;103358.84;5225924;28;20163;-74
2023/02/14 06:10:58;;;;;;;77.25;35.33;;;;;;;-2.13;100.00;103362.34;5225670;28;20043;-74
2023/02/14 06:13:28;;;;;;;83.20;35.28;;;;;;;-2.16;100.00;103358.03;5226223;28;20031;-73
2023/02/14 06:15:59;;;;;;;82.38;36.00;;;;;;;-2.17;100.00;103358.91;5225626;28;20489;-74
2023/02/14 06:18:29;;;;;;;81.35;35.85;;;;;;;-2.18;100.00;103361.56;5225201;28;20397;-74
2023/02/14 06:21:00;;;;;;;101.50;36.88;;;;;;;-2.21;100.00;103353.69;5225590;28;20121;-74
2023/02/14 06:23:30;;;;;;;87.65;36.72;;;;;;;-2.19;100.00;103362.47;5226083;28;20035;-74
2023/02/14 06:26:01;;;;;;;84.25;35.33;;;;;;;-2.19;100.00;103360.69;5225741;28;20028;-74
2023/02/14 06:28:31;;;;;;;81.75;34.20;;;;;;;-2.14;100.00;103366.75;5225527;28;20619;-74
2023/02/14 06:31:02;;;;;;;80.05;34.75;;;;;;;-2.06;100.00;103364.00;5225273;28;20078;-74
2023/02/14 06:33:32;;;;;;;90.38;36.53;;;;;;;-2.06;100.00;103365.75;5225984;28;20531;-74
2023/02/14 06:36:03;;;;;;;87.10;34.72;;;;;;;-2.10;100.00;103364.94;5207749;28;20234;-74
2023/02/14 06:38:33;;;;;;;92.55;36.30;;;;;;;-2.15;100.00;103369.41;5207659;28;20397;-74
2023/02/14 06:41:05;;;;;;;80.32;32.10;;;;;;;-2.19;100.00;103365.09;5225226;28;20033;-73
2023/02/14 06:43:37;;;;;;;84.60;33.63;;;;;;;-2.23;100.00;103376.53;5225185;28;20039;-74
2023/02/14 06:46:07;;;;;;;75.57;33.83;;;;;;;-2.24;100.00;103361.66;5225335;28;20024;-74
2023/02/14 06:48:37;;;;;;;80.68;34.38;;;;;;;-2.26;100.00;103358.16;5225055;28;20024;-74
2023/02/14 06:51:08;;;;;;;75.30;33.05;;;;;;;-2.27;100.00;103377.47;5225161;28;20028;-74
2023/02/14 06:53:39;;;;;;;82.40;33.15;;;;;;;-2.29;100.00;103368.75;5207176;28;20096;-74
2023/02/14 06:56:09;;;;;;;69.90;29.85;;;;;;;-2.29;100.00;103374.00;5225392;28;20038;-74
2023/02/14 06:58:40;;;;;;;79.40;32.28;;;;;;;-2.32;100.00;103369.63;5207029;28;20100;-74
2023/02/14 07:01:10;;;;;;;86.57;33.25;;;;;;;-2.30;100.00;103377.53;5207080;28;20032;-74
2023/02/14 07:03:41;;;;;;;79.93;35.63;;;;;;;-2.30;100.00;103367.00;5207803;28;20032;-74
2023/02/14 07:06:11;;;;;;;81.45;35.35;;;;;;;-2.29;100.00;103377.50;5225049;28;20029;-74
2023/02/14 07:08:42;;;;;;;84.35;35.30;;;;;;;-2.28;100.00;103384.50;5207347;28;20783;-74
2023/02/14 07:11:12;;;;;;;90.55;36.15;;;;;;;-2.25;100.00;103386.22;5206990;28;20120;-73
2023/02/14 07:13:43;;;;;;;84.03;34.17;;;;;;;-2.25;100.00;103378.34;5224844;28;20025;-74
2023/02/14 07:16:13;;;;;;;89.35;35.38;;;;;;;-2.24;100.00;103374.81;5224931;28;20036;-74
2023/02/14 07:18:44;;;;;;;80.25;34.15;;;;;;;-2.19;100.00;103370.34;5224631;28;20027;-73
2023/02/14 07:21:14;;;;;;;88.18;36.33;;;;;;;-2.16;100.00;103375.53;5205651;28;20029;-74
2023/02/14 07:23:46;;;;;;;82.47;34.83;;;;;;;-2.10;100.00;103375.47;5224321;28;20044;-74
2023/02/14 07:26:17;;;;;;;88.05;33.97;;;;;;;-2.06;100.00;103369.25;5207204;28;20036;-74
2023/02/14 07:28:48;;;;;;;99.63;35.03;;;;;;;-2.02;100.00;103368.31;5224826;28;20417;-74
2023/02/14 07:31:19;;;;;;;94.43;36.03;;;;;;;-1.95;100.00;103364.72;5224076;28;20032;-74
2023/02/14 07:33:50;;;;;;;99.20;35.47;;;;;;;-1.89;100.00;103369.00;5224615;28;20104;-74
2023/02/14 07:36:21;;;;;;;84.57;32.72;;;;;;;-1.83;100.00;103367.13;5200738;28;20129;-73
2023/02/14 07:38:51;;;;;;;87.85;31.75;;;;;;;-1.72;100.00;103360.81;5212291;28;20024;-74
2023/02/14 07:41:22;;;;;;;81.40;34.13;;;;;;;-1.59;100.00;103363.22;5223167;28;20013;-74
2023/02/14 07:43:53;;;;;;;82.07;32.05;;;;;;;-1.43;100.00;103355.94;5223008;28;20024;-74
2023/02/14 07:46:23;;;;;;;78.82;31.50;;;;;;;-1.32;100.00;103359.22;5222606;28;20017;-75
2023/02/14 07:48:54;;;;;;;72.85;32.20;;;;;;;-1.14;100.00;103354.53;5223374;28;20078;-75
2023/02/14 07:51:24;;;;;;;80.35;31.48;;;;;;;-0.99;100.00;103361.25;5223052;28;20039;-74
2023/02/14 07:53:54;;;;;;;72.90;30.60;;;;;;;-0.81;100.00;103363.50;5205317;28;20016;-74
2023/02/14 07:56:25;;;;;;;71.55;30.23;;;;;;;-0.59;100.00;103362.16;5222167;28;20119;-74
2023/02/14 07:58:56;;;;;;;71.50;32.00;;;;;;;-0.27;100.00;103366.72;5205237;28;20036;-74
2023/02/14 08:01:26;;;;;;;72.55;31.27;;;;;;;0.15;100.00;103369.28;5222862;28;20051;-74
2023/02/14 08:03:56;;;;;;;72.32;28.50;;;;;;;0.55;100.00;103373.53;5209978;28;20399;-75
2023/02/14 08:06:27;;;;;;;64.00;29.10;;;;;;;1.01;100.00;103373.16;5203379;28;20104;-75
2023/02/14 08:08:58;;;;;;;63.35;29.13;;;;;;;1.39;100.00;103378.25;5222382;28;20021;-75
2023/02/14 08:14:17;;;;;;;63.35;27.35;;;;;;;2.27;100.00;103370.19;5222850;28;20053;-75
2023/02/14 08:16:47;;;;;;;55.83;26.80;;;;;;;2.54;100.00;103362.22;5205278;28;20413;-75
2023/02/14 08:19:18;;;;;;;61.92;26.92;;;;;;;2.92;100.00;103368.84;5222343;28;20028;-76
2023/02/14 08:21:48;;;;;;;58.30;27.23;;;;;;;3.08;100.00;103366.50;5222953;28;20021;-75
2023/02/14 08:24:19;;;;;;;46.85;24.63;;;;;;;3.21;100.00;103362.44;5204684;28;20111;-75
2023/02/14 08:26:49;;;;;;;48.90;24.33;;;;;;;3.58;100.00;103361.91;5222400;28;20115;-75
2023/02/14 08:29:20;;;;;;;57.90;25.00;;;;;;;3.84;100.00;103360.88;5222863;28;20029;-75
2023/02/14 08:31:51;;;;;;;47.38;25.20;;;;;;;4.13;100.00;103361.50;5204446;28;20021;-75
2023/02/14 08:34:22;;;;;;;41.10;22.80;;;;;;;4.65;100.00;103359.28;5205001;28;20474;-75
2023/02/14 08:36:53;;;;;;;47.38;22.95;;;;;;;4.73;100.00;103359.84;5222191;28;20040;-75
2023/02/14 08:39:24;;;;;;;43.47;23.83;;;;;;;4.74;100.00;103363.34;5222543;28;20021;-75
2023/02/14 08:41:54;;;;;;;49.33;23.85;;;;;;;4.80;100.00;103365.75;5222389;28;20488;-75
2023/02/14 08:44:25;;;;;;;48.33;24.55;;;;;;;4.84;100.00;103359.34;5222086;28;20103;-75
2023/02/14 08:46:55;;;;;;;49.97;25.50;;;;;;;5.11;100.00;103365.22;5222079;28;20021;-75
2023/02/14 08:49:26;;;;;;;52.53;24.95;;;;;;;5.37;100.00;103362.25;5222613;28;20025;-75
2023/02/14 08:51:56;;;;;;;42.20;23.38;;;;;;;5.64;100.00;103372.53;5222409;28;20031;-75
2023/02/14 08:54:27;;;;;;;44.90;22.73;;;;;;;5.91;100.00;103365.91;5222150;28;20028;-76
2023/02/14 08:56:57;;;;;;;46.78;24.42;;;;;;;6.00;100.00;103363.75;5221828;28;20820;-75
2023/02/14 08:59:28;;;;;;;46.15;23.30;;;;;;;6.33;100.00;103359.41;5204430;28;20105;-75
2023/02/14 09:01:59;;;;;;;47.17;25.25;;;;;;;6.51;100.00;103359.41;5222487;28;20473;-75
2023/02/14 09:04:29;;;;;;;46.13;25.00;;;;;;;6.71;100.00;103367.25;5209076;28;20017;-75
2023/02/14 09:07:00;;;;;;;53.20;25.30;;;;;;;6.98;100.00;103359.63;5221741;28;20036;-75
2023/02/14 09:09:31;;;;;;;48.20;24.75;;;;;;;7.24;100.00;103358.22;5222018;28;20769;-75
2023/02/14 09:12:04;;;;;;;49.38;25.65;;;;;;;7.40;100.00;103361.75;5222234;28;20057;-75
2023/02/14 09:14:38;;;;;;;48.20;24.85;;;;;;;7.58;100.00;103356.31;5191453;28;20473;-75
2023/02/14 09:17:10;;;;;;;54.40;25.77;;;;;;;7.70;100.00;103353.84;5222735;28;20115;-75
2023/02/14 09:19:41;;;;;;;49.30;24.70;;;;;;;7.92;100.00;103353.47;5225621;28;20036;-75
2023/02/14 09:22:11;;;;;;;46.15;24.27;;;;;;;7.95;100.00;103355.97;5226178;28;20381;-75
2023/02/14 09:24:42;;;;;;;46.55;24.42;;;;;;;7.83;100.00;103356.69;5226089;28;20111;-75
2023/02/14 09:27:13;;;;;;;46.55;25.17;;;;;;;8.04;100.00;103346.56;5225727;28;20370;-75
2023/02/14 09:29:43;;;;;;;46.05;25.00;;;;;;;8.04;100.00;103349.25;5225857;28;20665;-75
2023/02/14 09:32:14;;;;;;;46.45;24.10;;;;;;;8.09;100.00;103346.31;5225271;28;20029;-75
2023/02/14 09:34:45;;;;;;;48.83;23.90;;;;;;;8.23;100.00;103343.66;5225857;28;20722;-75
2023/02/14 09:40:05;;;;;;;43.67;23.30;;;;;;;8.37;100.00;103340.22;5225853;28;20033;-75
2023/02/14 09:42:54;;;;;;;48.05;22.95;;;;;;;8.52;100.00;103339.31;5225216;28;20078;-75
2023/02/14 09:45:27;;;;;;;43.90;23.83;;;;;;;8.63;100.00;103339.50;5212213;28;20064;-75
2023/02/14 09:48:19;;;;;;;44.47;23.42;;;;;;;8.85;100.00;103335.53;5226159;28;20052;-75
2023/02/14 09:50:55;;;;;;;48.40;23.35;;;;;;;9.14;100.00;103341.78;5225213;28;20033;-75
2023/02/14 09:53:31;;;;;;;43.42;24.00;;;;;;;9.15;100.00;103338.13;5225638;28;20033;-75
2023/02/14 09:56:37;;;;;;;45.58;22.88;;;;;;;9.19;100.00;103337.84;5224710;28;20036;-75
2023/02/14 09:59:16;;;;;;;44.10;23.08;;;;;;;9.20;100.00;103333.34;5207361;28;20071;-75
2023/02/14 10:02:24;;;;;;;44.50;22.95;;;;;;;9.48;100.00;103341.31;5212832;28;20025;-76
2023/02/14 10:05:17;;;;;;;45.13;22.90;;;;;;;9.28;100.00;103334.56;5212005;28;20021;-75
2023/02/14 10:08:15;;;;;;;40.35;21.77;;;;;;;9.25;100.00;103341.97;5224130;28;20032;-75
2023/02/14 10:10:54;;;;;;;45.55;22.17;;;;;;;9.62;100.00;103344.94;5207316;28;20029;-75
2023/02/14 10:13:25;;;;;;;41.85;22.70;;;;;;;9.63;100.00;103336.81;5225000;28;20064;-75
2023/02/14 10:16:03;;;;;;;41.13;22.60;;;;;;;9.70;100.00;103338.13;5224280;28;20044;-75
2023/02/14 10:18:52;;;;;;;45.78;23.92;;;;;;;9.84;100.00;103334.56;5224647;28;20025;-75
2023/02/14 10:21:30;;;;;;;49.13;23.48;;;;;;;9.81;100.00;103335.59;5224922;28;20064;-75
2023/02/14 10:24:13;;;;;;;44.90;23.92;;;;;;;9.95;100.00;103341.91;5224805;28;20024;-75
2023/02/14 10:26:47;;;;;;;51.17;24.55;;;;;;;10.05;100.00;103338.50;5206545;28;20020;-75
2023/02/14 10:29:19;;;;;;;47.03;23.70;;;;;;;10.19;100.00;103328.66;5223979;28;20029;-75
2023/02/14 10:31:57;;;;;;;48.60;21.95;;;;;;;10.31;100.00;103335.91;5224371;28;20039;-75
2023/02/14 10:34:47;;;;;;;45.47;22.63;;;;;;;10.58;100.00;103325.97;5206936;28;20032;-75
2023/02/14 10:37:36;;;;;;;46.40;22.08;;;;;;;10.77;100.00;103325.56;5224051;28;20021;-75
2023/02/14 10:40:26;;;;;;;44.15;21.42;;;;;;;10.71;100.00;103327.81;5208344;28;20064;-75
2023/02/14 10:43:14;;;;;;;42.92;22.10;;;;;;;10.91;100.00;103332.66;5225968;28;20031;-75
2023/02/14 10:45:53;;;;;;;41.72;22.33;;;;;;;10.51;100.00;103327.38;5225668;28;20453;-75
2023/02/14 10:48:58;;;;;;;45.20;21.65;;;;;;;10.58;100.00;103328.66;5225418;28;20028;-75
2023/02/14 10:51:34;;;;;;;45.85;22.15;;;;;;;10.65;100.00;103321.03;5223878;28;20123;-75
2023/02/14 10:54:24;;;;;;;42.83;21.58;;;;;;;10.43;100.00;103326.16;5206506;28;20570;-75
2023/02/14 10:57:13;;;;;;;44.33;22.80;;;;;;;10.58;100.00;103320.59;5211973;28;20104;-75
2023/02/14 11:00:18;;;;;;;42.40;22.02;;;;;;;10.47;100.00;103312.44;5223479;28;20013;-75
2023/02/14 11:02:55;;;;;;;49.80;23.98;;;;;;;10.74;100.00;103309.66;5206511;28;20033;-75
2023/02/14 11:05:29;;;;;;;44.85;21.83;;;;;;;10.78;100.00;103310.28;5223908;28;20028;-75
2023/02/14 11:08:01;;;;;;;47.77;23.13;;;;;;;11.06;100.00;103303.84;5223007;28;20029;-75
2023/02/14 11:10:35;;;;;;;43.33;21.23;;;;;;;11.38;100.00;103306.88;5223872;28;20312;-75
2023/02/14 11:13:26;;;;;;;44.55;22.83;;;;;;;11.44;100.00;103295.69;5223830;28;20031;-75
2023/02/14 11:15:59;;;;;;;47.72;23.55;;;;;;;11.34;100.00;103294.63;5205692;28;20017;-75
2023/02/14 11:18:34;;;;;;;49.50;22.90;;;;;;;10.97;100.00;103289.22;5205380;28;20025;-75
2023/02/14 11:21:19;;;;;;;45.30;23.67;;;;;;;11.09;100.00;103280.31;5223589;28;20227;-75
2023/02/14 11:23:50;;;;;;;50.33;23.10;;;;;;;11.19;100.00;103279.63;5206836;28;20043;-75
2023/02/14 11:26:25;;;;;;;44.83;23.55;;;;;;;11.46;100.00;103274.06;5223140;28;20117;-75
2023/02/14 11:29:00;;;;;;;46.60;22.65;;;;;;;11.48;100.00;103266.75;5223021;28;20036;-75
2023/02/14 11:31:35;;;;;;;47.55;23.33;;;;;;;11.60;100.00;103258.66;5223596;28;20032;-75
2023/02/14 11:34:22;;;;;;;;;;;;;;;11.76;100.00;103258.34;5223504;28;20078;-75
2023/02/14 11:36:52;;;;;;;49.22;23.30;;;;;;;11.80;100.00;103246.41;5222706;28;20397;-75
2023/02/14 11:39:37;;;;;;;45.25;22.05;;;;;;;11.93;100.00;103246.34;5222825;28;20021;-75
2023/02/14 11:42:11;;;;;;;44.22;22.58;;;;;;;11.94;100.00;103245.34;5223297;28;20029;-75
2023/02/14 11:44:57;;;;;;;48.42;24.38;;;;;;;12.05;100.00;103240.03;5205072;28;20032;-75
2023/02/14 11:47:30;;;;;;;49.05;23.13;;;;;;;12.20;100.00;103240.69;5184595;28;20508;-75
2023/02/14 11:50:05;;;;;;;42.47;22.00;;;;;;;12.29;100.00;103231.88;5219892;28;20708;-75
2023/02/14 11:52:48;;;;;;;46.53;23.55;;;;;;;12.28;100.00;103227.47;5205842;28;20029;-76
2023/02/14 11:55:33;;;;;;;48.40;24.33;;;;;;;12.27;100.00;103224.91;5222322;28;20025;-75
2023/02/14 11:58:06;;;;;;;46.13;24.23;;;;;;;12.37;100.00;103223.22;5204462;28;20061;-75
2023/02/14 12:00:36;;;;;;;43.60;21.13;;;;;;;12.46;100.00;103217.13;5223143;28;20363;-75